Red Diamond — A8UM9 — position and weather

sailwx.info

Track history (hours):
 
Tides and Currents Weather Stations Pressure Air Temp Water Temp Dewpoint Dewpoint Depression Visibility Wind Speed Wind Dir Waves Ship Positions

Red Diamond

Last reported at 2017-Dec-18 19:13 UTC. Time now 2018-Feb-18 01:07 UTC.
Position N 36°15' E 026°59'.
Warning: this ship's position is months out of date.

Length 190 m; draft 12.5 m.

Type: Ship. MMSI: 636014524.

Date/timePositionNaut miles runAvg speedWind from/ knotsBaromVisibWave heightAir tempDewpointWater temp
2017-Dec-18 19:13N 36°15' E 026°59'611.9
2017-Dec-18 18:43N 36°20' E 026°55'312.0
2017-Dec-18 18:30N 36°22' E 026°53'711.9
2017-Dec-18 17:57N 36°27' E 026°47'512.2
2017-Dec-18 17:30N 36°31' E 026°43'712.8
2017-Dec-18 17:00N 36°36' E 026°37'613.1
2017-Dec-18 16:30N 36°40' E 026°32'713.1
2017-Dec-18 16:00N 36°45' E 026°26'712.9
2017-Dec-18 15:30N 36°50' E 026°21'612.9
2017-Dec-18 15:00N 36°55' E 026°15'612.4
2017-Dec-18 14:30N 36°59' E 026°10'612.4
2017-Dec-18 14:00N 37°05' E 026°06'713.0
2017-Dec-18 13:30N 37°11' E 026°02'713.2
2017-Dec-18 13:00N 37°16' E 025°58'612.8
2017-Dec-18 12:30N 37°22' E 025°54'612.8
2017-Dec-18 12:00N 37°27' E 025°50'812.5
2017-Dec-18 11:23N 37°34' E 025°46'512.2
2017-Dec-18 11:00N 37°39' E 025°44'612.8
2017-Dec-18 10:30N 37°45' E 025°44'245 9.9
2017-Dec-17 09:42N 40°59' E 028°58'1 5.7
2017-Dec-17 09:29N 40°60' E 028°60'143 6.2
2017-Dec-16 10:16N 43°23' E 029°01'411.2
2017-Dec-16 09:55N 43°27' E 029°01'410.9
2017-Dec-16 09:30N 43°31' E 029°01'510.7
2017-Dec-16 09:00N 43°36' E 029°01'510.7
2017-Dec-16 08:31N 43°42' E 029°00'510.7
2017-Dec-16 08:00N 43°47' E 029°00'510.8
2017-Dec-16 07:30N 43°52' E 028°56'510.9
2017-Dec-16 07:00N 43°56' E 028°51'5 9.1
2017-Dec-16 06:31N 43°60' E 028°48'4 8.2
2017-Dec-16 06:00N 44°03' E 028°44'4 7.7
2017-Dec-16 05:31N 44°06' E 028°42'2 3.6
2017-Dec-16 05:00N 44°07' E 028°39'0 0.3
2017-Dec-16 04:29N 44°06' E 028°39'0 0.0
2017-Dec-16 03:59N 44°06' E 028°39'0 0.0
2017-Dec-16 03:29N 44°06' E 028°39'0 0.0
2017-Dec-16 02:59N 44°06' E 028°39'0 0.0
2017-Dec-16 02:29N 44°06' E 028°39'0 0.0
2017-Dec-16 01:59N 44°06' E 028°39'0 0.0
2017-Dec-16 01:29N 44°06' E 028°39'0 0.0
2017-Dec-16 00:59N 44°06' E 028°39'0 0.0
2017-Dec-16 00:29N 44°06' E 028°39'0 0.0
2017-Dec-15 23:59N 44°06' E 028°39'0 0.0
2017-Dec-15 23:29N 44°06' E 028°39'0 0.0
2017-Dec-15 22:59N 44°06' E 028°39'0 0.0
2017-Dec-15 22:29N 44°06' E 028°39'0 0.0
2017-Dec-15 21:59N 44°06' E 028°39'0 0.0
2017-Dec-15 21:29N 44°06' E 028°39'0 0.0
2017-Dec-15 20:59N 44°06' E 028°39'0 0.0
2017-Dec-15 20:29N 44°06' E 028°39'0 0.0
2017-Dec-15 19:59N 44°06' E 028°39'0 0.0
2017-Dec-15 19:29N 44°06' E 028°39'0 0.0
2017-Dec-15 18:59N 44°06' E 028°39'0 0.0
2017-Dec-15 18:29N 44°06' E 028°39'0 0.0
2017-Dec-15 17:59N 44°06' E 028°39'0 0.0
2017-Dec-15 17:29N 44°06' E 028°39'0 0.0
2017-Dec-15 16:56N 44°06' E 028°39'0 0.0
2017-Dec-15 16:29N 44°06' E 028°39'0 0.0
2017-Dec-15 15:59N 44°06' E 028°39'0 0.0
2017-Dec-15 15:29N 44°06' E 028°39'0 0.0
2017-Dec-15 14:59N 44°06' E 028°39'0 0.0
2017-Dec-15 14:29N 44°06' E 028°39'0 0.0
2017-Dec-15 13:59N 44°06' E 028°39'0 0.0
2017-Dec-15 13:29N 44°06' E 028°39'0 0.0
2017-Dec-15 12:59N 44°06' E 028°39'0 0.0
2017-Dec-15 12:29N 44°06' E 028°39'0 0.0
2017-Dec-15 11:59N 44°06' E 028°39'0 0.0
2017-Dec-15 11:29N 44°06' E 028°39'0 0.0
2017-Dec-15 10:59N 44°06' E 028°39'0 0.0
2017-Dec-15 10:29N 44°06' E 028°39'0 0.0
2017-Dec-15 09:59N 44°06' E 028°39'0 0.0
2017-Dec-15 09:26N 44°06' E 028°39'0 0.0
2017-Dec-15 08:59N 44°06' E 028°39'0 0.0
2017-Dec-15 08:29N 44°06' E 028°39'0 0.0
2017-Dec-15 07:59N 44°06' E 028°39'0 0.0
2017-Dec-15 07:29N 44°06' E 028°39'0 0.0
2017-Dec-15 06:59N 44°06' E 028°39'0 0.0
2017-Dec-15 06:29N 44°06' E 028°39'0 0.0
2017-Dec-15 05:59N 44°06' E 028°39'0 0.0
2017-Dec-15 05:29N 44°06' E 028°39'0 0.0
2017-Dec-15 04:59N 44°06' E 028°39'0 0.0
2017-Dec-15 04:29N 44°06' E 028°39'0 0.0
2017-Dec-15 03:59N 44°06' E 028°39'0 0.0
2017-Dec-15 02:29N 44°06' E 028°39'0 0.0
2017-Dec-15 00:59N 44°06' E 028°39'0 0.0
2017-Dec-15 00:29N 44°06' E 028°39'0 0.0
2017-Dec-14 18:29N 44°06' E 028°39'0 0.0
2017-Dec-14 17:59N 44°06' E 028°39'0 0.0
2017-Dec-14 17:29N 44°06' E 028°39'0 0.0
2017-Dec-14 16:59N 44°06' E 028°39'0 0.0
2017-Dec-14 16:29N 44°06' E 028°39'0 0.0
2017-Dec-14 15:59N 44°06' E 028°39'0 0.0
2017-Dec-14 14:59N 44°06' E 028°39'0 0.0
2017-Dec-14 14:29N 44°06' E 028°39'0 0.0
2017-Dec-14 13:59N 44°06' E 028°39'0 0.0
2017-Dec-14 13:29N 44°06' E 028°39'0 0.0
2017-Dec-14 12:59N 44°06' E 028°39'0 0.0
2017-Dec-14 12:29N 44°06' E 028°39'0 0.0
2017-Dec-14 11:59N 44°06' E 028°39'0 0.0
2017-Dec-14 11:29N 44°06' E 028°39'0 0.0
2017-Dec-14 10:59N 44°06' E 028°39'0 0.0
2017-Dec-14 10:29N 44°06' E 028°39'0 0.0
2017-Dec-14 09:59N 44°06' E 028°39'0 0.0
2017-Dec-14 09:29N 44°06' E 028°39'0 0.0
2017-Dec-14 08:59N 44°06' E 028°39'0 0.0
2017-Dec-14 08:29N 44°06' E 028°39'0 0.0
2017-Dec-14 07:59N 44°06' E 028°39'0 0.0
2017-Dec-14 07:29N 44°06' E 028°39'0 0.0
2017-Dec-14 06:59N 44°06' E 028°39'0 0.0
2017-Dec-14 06:29N 44°06' E 028°39'0 0.0
2017-Dec-14 05:59N 44°06' E 028°39'0 0.0
2017-Dec-14 05:29N 44°06' E 028°39'0 0.0
2017-Dec-14 04:59N 44°06' E 028°39'0 0.0
2017-Dec-14 04:26N 44°06' E 028°39'0 0.0
2017-Dec-14 03:59N 44°06' E 028°39'0 0.0
2017-Dec-14 03:29N 44°06' E 028°39'0 0.0
2017-Dec-14 02:59N 44°06' E 028°39'0 0.0
2017-Dec-14 02:29N 44°06' E 028°39'0 0.0
2017-Dec-14 01:59N 44°06' E 028°39'0 0.0
2017-Dec-14 01:29N 44°06' E 028°39'0 0.0
2017-Dec-14 00:59N 44°06' E 028°39'0 0.0
2017-Dec-14 00:29N 44°06' E 028°39'0 0.0
2017-Dec-13 23:59N 44°06' E 028°39'0 0.0
2017-Dec-13 23:29N 44°06' E 028°39'0 0.0
2017-Dec-13 22:59N 44°06' E 028°39'0 0.0
2017-Dec-13 22:29N 44°06' E 028°39'0 0.0
2017-Dec-13 21:59N 44°06' E 028°39'0 0.0
2017-Dec-13 21:29N 44°06' E 028°39'0 0.0
2017-Dec-13 20:59N 44°06' E 028°39'0 0.0
2017-Dec-13 20:29N 44°06' E 028°39'0 0.0
2017-Dec-13 19:59N 44°06' E 028°39'0 0.0
2017-Dec-13 19:29N 44°06' E 028°39'0 0.0
2017-Dec-13 18:59N 44°06' E 028°39'0 0.0
2017-Dec-13 18:29N 44°06' E 028°39'0 0.0
2017-Dec-13 17:59N 44°06' E 028°39'0 0.0
2017-Dec-13 17:29N 44°06' E 028°39'0 0.0
2017-Dec-13 16:59N 44°06' E 028°39'0 0.0
2017-Dec-13 16:29N 44°06' E 028°39'0 0.0
2017-Dec-13 15:59N 44°06' E 028°39'0 0.0
2017-Dec-13 15:29N 44°06' E 028°39'0 0.0
2017-Dec-13 14:59N 44°06' E 028°39'0 0.0
2017-Dec-13 14:29N 44°06' E 028°39'0 0.0
2017-Dec-13 13:59N 44°06' E 028°39'0 0.0
2017-Dec-13 13:29N 44°06' E 028°39'0 0.0
2017-Dec-13 12:59N 44°06' E 028°39'0 0.0
2017-Dec-13 12:29N 44°06' E 028°39'0 0.0
2017-Dec-13 11:59N 44°06' E 028°39'0 0.0
2017-Dec-13 11:29N 44°06' E 028°39'0 0.0
2017-Dec-13 10:59N 44°06' E 028°39'0 0.0
2017-Dec-13 10:29N 44°06' E 028°39'0 0.0
2017-Dec-13 09:59N 44°06' E 028°39'0 0.0
2017-Dec-13 09:29N 44°06' E 028°39'0 0.0
2017-Dec-13 08:59N 44°06' E 028°39'0 0.0
2017-Dec-13 08:29N 44°06' E 028°39'0 0.0
2017-Dec-13 07:59N 44°06' E 028°39'0 0.0
2017-Dec-13 07:29N 44°06' E 028°39'0 0.0
2017-Dec-13 06:59N 44°06' E 028°39'0 0.0
2017-Dec-13 06:29N 44°06' E 028°39'0 0.0
2017-Dec-13 05:59N 44°06' E 028°39'0 0.0
2017-Dec-13 05:29N 44°06' E 028°39'0 0.0
2017-Dec-13 04:56N 44°06' E 028°39'0 0.0
2017-Dec-13 04:29N 44°06' E 028°39'0 0.0
2017-Dec-13 03:59N 44°06' E 028°39'0 0.0
2017-Dec-13 03:29N 44°06' E 028°39'0 0.0
2017-Dec-13 02:59N 44°06' E 028°39'0 0.0
2017-Dec-13 02:29N 44°06' E 028°39'0 0.0
2017-Dec-13 01:59N 44°06' E 028°39'0 0.0
2017-Dec-13 01:29N 44°06' E 028°39'0 0.0
2017-Dec-13 00:59N 44°06' E 028°39'0 0.0
2017-Dec-13 00:29N 44°06' E 028°39'0 0.0
2017-Dec-12 23:59N 44°06' E 028°39'0 0.0
2017-Dec-12 23:29N 44°06' E 028°39'0 0.0
2017-Dec-12 22:59N 44°06' E 028°39'0 0.0
2017-Dec-12 22:29N 44°06' E 028°39'0 0.0
2017-Dec-12 21:59N 44°06' E 028°39'0 0.0
2017-Dec-12 21:29N 44°06' E 028°39'0 0.0
2017-Dec-12 20:59N 44°06' E 028°39'0 0.0
2017-Dec-12 20:26N 44°06' E 028°39'0 0.0
2017-Dec-12 19:59N 44°06' E 028°39'0 0.0
2017-Dec-12 19:29N 44°06' E 028°39'0 0.0
2017-Dec-12 18:59N 44°06' E 028°39'0 0.0
2017-Dec-12 18:29N 44°06' E 028°39'0 0.0
2017-Dec-12 17:59N 44°06' E 028°39'0 0.0
2017-Dec-12 17:29N 44°06' E 028°39'0 0.0
2017-Dec-12 16:59N 44°06' E 028°39'0 0.0
2017-Dec-12 16:29N 44°06' E 028°39'0 0.0
2017-Dec-12 15:59N 44°06' E 028°39'0 0.0
2017-Dec-12 15:29N 44°06' E 028°39'0 0.0
2017-Dec-12 14:59N 44°06' E 028°39'0 0.0
2017-Dec-12 14:29N 44°06' E 028°39'0 0.0
2017-Dec-12 13:59N 44°06' E 028°39'0 0.0
2017-Dec-12 13:26N 44°06' E 028°39'0 0.0
2017-Dec-12 12:59N 44°06' E 028°39'0 0.0
2017-Dec-12 12:29N 44°06' E 028°39'0 0.0
2017-Dec-12 11:59N 44°06' E 028°39'0 0.0
2017-Dec-12 11:29N 44°06' E 028°39'0 0.0
2017-Dec-12 10:59N 44°06' E 028°39'0 0.0
2017-Dec-12 10:29N 44°06' E 028°39'0 0.0
2017-Dec-12 09:59N 44°06' E 028°39'0 0.0
2017-Dec-12 09:29N 44°06' E 028°39'0 0.0
2017-Dec-12 08:59N 44°06' E 028°39'0 0.0
2017-Dec-12 08:29N 44°06' E 028°39'0 0.0
2017-Dec-12 07:59N 44°06' E 028°39'0 0.0
2017-Dec-12 07:29N 44°06' E 028°39'0 0.0
2017-Dec-12 06:59N 44°06' E 028°39'0 0.0
2017-Dec-12 06:29N 44°06' E 028°39'0 0.0
2017-Dec-12 05:59N 44°06' E 028°39'0 0.0
2017-Dec-12 05:30N 44°06' E 028°39'0 0.0
2017-Dec-12 05:00N 44°06' E 028°39'0 0.0
2017-Dec-12 04:30N 44°06' E 028°39'0 0.0
2017-Dec-12 04:00N 44°06' E 028°39'0 0.0
2017-Dec-12 03:30N 44°06' E 028°39'0 0.0
2017-Dec-12 03:00N 44°06' E 028°39'0 0.0
2017-Dec-12 02:30N 44°06' E 028°39'0 0.0
2017-Dec-12 02:00N 44°06' E 028°39'0 0.0
2017-Dec-12 01:30N 44°06' E 028°39'0 0.0
2017-Dec-12 01:00N 44°06' E 028°39'0 0.0
2017-Dec-12 00:30N 44°06' E 028°39'0 0.0
2017-Dec-12 00:00N 44°06' E 028°39'0 0.0
2017-Dec-11 23:30N 44°06' E 028°39'0 0.0
2017-Dec-11 23:00N 44°06' E 028°39'0 0.0
2017-Dec-11 22:30N 44°06' E 028°39'0 0.0
2017-Dec-11 22:00N 44°06' E 028°39'0 0.0
2017-Dec-11 21:30N 44°06' E 028°39'0 0.0
2017-Dec-11 21:00N 44°06' E 028°39'0 0.0
2017-Dec-11 20:30N 44°06' E 028°39'0 0.0
2017-Dec-11 20:00N 44°06' E 028°39'0 0.0
2017-Dec-11 19:30N 44°06' E 028°39'0 0.0
2017-Dec-11 19:00N 44°06' E 028°39'0 0.0
2017-Dec-11 18:30N 44°06' E 028°39'0 0.0
2017-Dec-11 18:00N 44°06' E 028°39'0 0.0
2017-Dec-11 17:30N 44°06' E 028°39'0 0.0
2017-Dec-11 17:00N 44°06' E 028°39'0 0.0
2017-Dec-11 16:30N 44°06' E 028°39'0 0.0
2017-Dec-11 16:00N 44°06' E 028°39'0 0.0
2017-Dec-11 15:30N 44°06' E 028°39'0 0.0
2017-Dec-11 15:00N 44°06' E 028°39'0 0.0
2017-Dec-11 14:30N 44°06' E 028°39'0 0.0
2017-Dec-11 14:00N 44°06' E 028°39'0 0.0
2017-Dec-11 13:30N 44°06' E 028°39'0 0.0
2017-Dec-11 13:00N 44°06' E 028°39'0 0.0
2017-Dec-11 12:30N 44°06' E 028°39'0 0.0
2017-Dec-11 12:00N 44°06' E 028°39'0 0.0
2017-Dec-11 11:30N 44°06' E 028°39'0 0.0
2017-Dec-11 11:00N 44°06' E 028°39'0 0.0
2017-Dec-11 10:30N 44°06' E 028°39'0 0.0
2017-Dec-11 10:00N 44°06' E 028°39'0 0.0
2017-Dec-11 09:30N 44°06' E 028°39'0 0.0
2017-Dec-11 09:00N 44°06' E 028°39'0 0.0
2017-Dec-11 08:30N 44°06' E 028°39'0 0.0
2017-Dec-11 08:00N 44°06' E 028°39'0 0.0
2017-Dec-11 07:30N 44°06' E 028°39'0 0.0
2017-Dec-11 07:00N 44°06' E 028°39'0 0.0
2017-Dec-11 06:30N 44°06' E 028°39'0 0.0
2017-Dec-11 06:00N 44°06' E 028°39'0 0.0
2017-Dec-11 05:30N 44°06' E 028°39'0 0.0
2017-Dec-11 05:00N 44°06' E 028°39'0 0.0
2017-Dec-11 04:30N 44°06' E 028°39'0 0.0
2017-Dec-11 04:00N 44°06' E 028°39'0 0.0
2017-Dec-11 03:30N 44°06' E 028°39'0 0.0
2017-Dec-11 03:00N 44°06' E 028°39'0 0.0
2017-Dec-11 02:30N 44°06' E 028°39'0 0.0
2017-Dec-11 02:00N 44°06' E 028°39'0 0.0
2017-Dec-11 01:30N 44°06' E 028°39'0 0.0
2017-Dec-11 01:00N 44°06' E 028°39'0 0.0
2017-Dec-11 00:30N 44°06' E 028°39'0 0.0
2017-Dec-11 00:00N 44°06' E 028°39'0 0.0
2017-Dec-10 23:30N 44°06' E 028°39'0 0.0
2017-Dec-10 23:00N 44°06' E 028°39'0 0.0
2017-Dec-10 22:30N 44°06' E 028°39'0 0.0
2017-Dec-10 22:00N 44°06' E 028°39'0 0.0
2017-Dec-10 21:27N 44°06' E 028°39'0 0.0
2017-Dec-10 21:00N 44°06' E 028°39'0 0.0
2017-Dec-10 20:30N 44°06' E 028°39'0 0.0
2017-Dec-10 20:00N 44°06' E 028°39'0 0.0
2017-Dec-10 19:30N 44°06' E 028°39'0 0.0
2017-Dec-10 19:00N 44°06' E 028°39'0 0.0
2017-Dec-10 18:30N 44°06' E 028°39'0 0.0
2017-Dec-10 18:00N 44°06' E 028°39'0 0.0
2017-Dec-10 17:30N 44°06' E 028°39'0 0.0
2017-Dec-10 17:00N 44°06' E 028°39'0 0.0
2017-Dec-10 16:30N 44°06' E 028°39'0 0.0
2017-Dec-10 16:00N 44°06' E 028°39'0 0.0
2017-Dec-10 15:30N 44°06' E 028°39'0 0.0
2017-Dec-10 15:00N 44°06' E 028°39'0 0.0
2017-Dec-10 14:30N 44°06' E 028°39'0 0.0
2017-Dec-10 14:00N 44°06' E 028°39'0 0.0
2017-Dec-10 13:27N 44°06' E 028°39'0 0.0
2017-Dec-10 13:00N 44°06' E 028°39'0 0.0
2017-Dec-10 12:30N 44°06' E 028°39'0 0.0
2017-Dec-10 12:00N 44°06' E 028°39'0 0.0
2017-Dec-10 11:27N 44°06' E 028°39'0 0.0
2017-Dec-10 11:00N 44°06' E 028°39'0 0.0
2017-Dec-10 10:30N 44°06' E 028°39'0 0.0
2017-Dec-10 10:00N 44°06' E 028°39'0 0.0
2017-Dec-10 09:30N 44°06' E 028°39'0 0.0
2017-Dec-10 09:00N 44°06' E 028°39'0 0.0
2017-Dec-10 08:30N 44°06' E 028°39'0 0.0
2017-Dec-10 08:01N 44°06' E 028°39'1 2.0
2017-Dec-10 07:31N 44°06' E 028°41'2 4.1
2017-Dec-10 07:01N 44°05' E 028°43'3 5.9
2017-Dec-10 06:31N 44°07' E 028°47'1 1.3
2017-Dec-10 06:01N 44°07' E 028°47'0 0.3
2017-Dec-10 05:31N 44°07' E 028°47'2 4.9
2017-Dec-10 05:01N 44°05' E 028°46'3 5.7
2017-Dec-10 04:31N 44°02' E 028°47'5 9.0
2017-Dec-10 04:00N 43°58' E 028°51'4 8.7
2017-Dec-10 03:31N 43°55' E 028°55'4 8.4
2017-Dec-10 03:01N 43°52' E 028°59'4 8.0
2017-Dec-10 02:30N 43°48' E 029°02'4 8.7
2017-Dec-10 02:01N 43°44' E 029°03'2 4.1
2017-Dec-10 01:30N 43°43' E 029°05'4 8.7
2017-Dec-10 01:01N 43°39' E 029°02'714.6
2017-Dec-10 00:30N 43°32' E 029°02'15113.7
2017-Dec-09 13:30N 41°01' E 028°60'4 8.1
2017-Dec-09 12:57N 40°57' E 028°59'5 9.4
2017-Dec-09 12:28N 40°53' E 028°55'5 9.6
2017-Dec-09 11:56N 40°50' E 028°50'1 1.5
2017-Dec-09 11:26N 40°49' E 028°50'3 4.4
2017-Dec-09 10:46N 40°48' E 028°46'1 2.1
2017-Dec-09 10:30N 40°48' E 028°45'  
Track history (hours):
 
Tides and Currents Weather Stations Pressure Air Temp Water Temp Dewpoint Dewpoint Depression Visibility Wind Speed Wind Dir Waves Ship Positions

Red Diamond

Last reported at 2017-Dec-18 19:13 UTC. Time now 2018-Feb-18 01:07 UTC.
Position N 36°15' E 026°59'.
Warning: this ship's position is months out of date.

Length 190 m; draft 12.5 m.

Type: Ship. MMSI: 636014524.

Date/timePositionNaut miles runAvg speedWind from/ knotsBaromVisibWave heightAir tempDewpointWater temp
2017-Dec-18 19:13N 36°15' E 026°59'611.9
2017-Dec-18 18:43N 36°20' E 026°55'312.0
2017-Dec-18 18:30N 36°22' E 026°53'711.9
2017-Dec-18 17:57N 36°27' E 026°47'512.2
2017-Dec-18 17:30N 36°31' E 026°43'712.8
2017-Dec-18 17:00N 36°36' E 026°37'613.1
2017-Dec-18 16:30N 36°40' E 026°32'713.1
2017-Dec-18 16:00N 36°45' E 026°26'712.9
2017-Dec-18 15:30N 36°50' E 026°21'612.9
2017-Dec-18 15:00N 36°55' E 026°15'612.4
2017-Dec-18 14:30N 36°59' E 026°10'612.4
2017-Dec-18 14:00N 37°05' E 026°06'713.0
2017-Dec-18 13:30N 37°11' E 026°02'713.2
2017-Dec-18 13:00N 37°16' E 025°58'612.8
2017-Dec-18 12:30N 37°22' E 025°54'612.8
2017-Dec-18 12:00N 37°27' E 025°50'812.5
2017-Dec-18 11:23N 37°34' E 025°46'512.2
2017-Dec-18 11:00N 37°39' E 025°44'612.8
2017-Dec-18 10:30N 37°45' E 025°44'245 9.9
2017-Dec-17 09:42N 40°59' E 028°58'1 5.7
2017-Dec-17 09:29N 40°60' E 028°60'143 6.2
2017-Dec-16 10:16N 43°23' E 029°01'411.2
2017-Dec-16 09:55N 43°27' E 029°01'410.9
2017-Dec-16 09:30N 43°31' E 029°01'510.7
2017-Dec-16 09:00N 43°36' E 029°01'510.7
2017-Dec-16 08:31N 43°42' E 029°00'510.7
2017-Dec-16 08:00N 43°47' E 029°00'510.8
2017-Dec-16 07:30N 43°52' E 028°56'510.9
2017-Dec-16 07:00N 43°56' E 028°51'5 9.1
2017-Dec-16 06:31N 43°60' E 028°48'4 8.2
2017-Dec-16 06:00N 44°03' E 028°44'4 7.7
2017-Dec-16 05:31N 44°06' E 028°42'2 3.6
2017-Dec-16 05:00N 44°07' E 028°39'0 0.3
2017-Dec-16 04:29N 44°06' E 028°39'0 0.0
2017-Dec-16 03:59N 44°06' E 028°39'0 0.0
2017-Dec-16 03:29N 44°06' E 028°39'0 0.0
2017-Dec-16 02:59N 44°06' E 028°39'0 0.0
2017-Dec-16 02:29N 44°06' E 028°39'0 0.0
2017-Dec-16 01:59N 44°06' E 028°39'0 0.0
2017-Dec-16 01:29N 44°06' E 028°39'0 0.0
2017-Dec-16 00:59N 44°06' E 028°39'0 0.0
2017-Dec-16 00:29N 44°06' E 028°39'0 0.0
2017-Dec-15 23:59N 44°06' E 028°39'0 0.0
2017-Dec-15 23:29N 44°06' E 028°39'0 0.0
2017-Dec-15 22:59N 44°06' E 028°39'0 0.0
2017-Dec-15 22:29N 44°06' E 028°39'0 0.0
2017-Dec-15 21:59N 44°06' E 028°39'0 0.0
2017-Dec-15 21:29N 44°06' E 028°39'0 0.0
2017-Dec-15 20:59N 44°06' E 028°39'0 0.0
2017-Dec-15 20:29N 44°06' E 028°39'0 0.0
2017-Dec-15 19:59N 44°06' E 028°39'0 0.0
2017-Dec-15 19:29N 44°06' E 028°39'0 0.0
2017-Dec-15 18:59N 44°06' E 028°39'0 0.0
2017-Dec-15 18:29N 44°06' E 028°39'0 0.0
2017-Dec-15 17:59N 44°06' E 028°39'0 0.0
2017-Dec-15 17:29N 44°06' E 028°39'0 0.0
2017-Dec-15 16:56N 44°06' E 028°39'0 0.0
2017-Dec-15 16:29N 44°06' E 028°39'0 0.0
2017-Dec-15 15:59N 44°06' E 028°39'0 0.0
2017-Dec-15 15:29N 44°06' E 028°39'0 0.0
2017-Dec-15 14:59N 44°06' E 028°39'0 0.0
2017-Dec-15 14:29N 44°06' E 028°39'0 0.0
2017-Dec-15 13:59N 44°06' E 028°39'0 0.0
2017-Dec-15 13:29N 44°06' E 028°39'0 0.0
2017-Dec-15 12:59N 44°06' E 028°39'0 0.0
2017-Dec-15 12:29N 44°06' E 028°39'0 0.0
2017-Dec-15 11:59N 44°06' E 028°39'0 0.0
2017-Dec-15 11:29N 44°06' E 028°39'0 0.0
2017-Dec-15 10:59N 44°06' E 028°39'0 0.0
2017-Dec-15 10:29N 44°06' E 028°39'0 0.0
2017-Dec-15 09:59N 44°06' E 028°39'0 0.0
2017-Dec-15 09:26N 44°06' E 028°39'0 0.0
2017-Dec-15 08:59N 44°06' E 028°39'0 0.0
2017-Dec-15 08:29N 44°06' E 028°39'0 0.0
2017-Dec-15 07:59N 44°06' E 028°39'0 0.0
2017-Dec-15 07:29N 44°06' E 028°39'0 0.0
2017-Dec-15 06:59N 44°06' E 028°39'0 0.0
2017-Dec-15 06:29N 44°06' E 028°39'0 0.0
2017-Dec-15 05:59N 44°06' E 028°39'0 0.0
2017-Dec-15 05:29N 44°06' E 028°39'0 0.0
2017-Dec-15 04:59N 44°06' E 028°39'0 0.0
2017-Dec-15 04:29N 44°06' E 028°39'0 0.0
2017-Dec-15 03:59N 44°06' E 028°39'0 0.0
2017-Dec-15 02:29N 44°06' E 028°39'0 0.0
2017-Dec-15 00:59N 44°06' E 028°39'0 0.0
2017-Dec-15 00:29N 44°06' E 028°39'0 0.0
2017-Dec-14 18:29N 44°06' E 028°39'0 0.0
2017-Dec-14 17:59N 44°06' E 028°39'0 0.0
2017-Dec-14 17:29N 44°06' E 028°39'0 0.0
2017-Dec-14 16:59N 44°06' E 028°39'0 0.0
2017-Dec-14 16:29N 44°06' E 028°39'0 0.0
2017-Dec-14 15:59N 44°06' E 028°39'0 0.0
2017-Dec-14 14:59N 44°06' E 028°39'0 0.0
2017-Dec-14 14:29N 44°06' E 028°39'0 0.0
2017-Dec-14 13:59N 44°06' E 028°39'0 0.0
2017-Dec-14 13:29N 44°06' E 028°39'0 0.0
2017-Dec-14 12:59N 44°06' E 028°39'0 0.0
2017-Dec-14 12:29N 44°06' E 028°39'0 0.0
2017-Dec-14 11:59N 44°06' E 028°39'0 0.0
2017-Dec-14 11:29N 44°06' E 028°39'0 0.0
2017-Dec-14 10:59N 44°06' E 028°39'0 0.0
2017-Dec-14 10:29N 44°06' E 028°39'0 0.0
2017-Dec-14 09:59N 44°06' E 028°39'0 0.0
2017-Dec-14 09:29N 44°06' E 028°39'0 0.0
2017-Dec-14 08:59N 44°06' E 028°39'0 0.0
2017-Dec-14 08:29N 44°06' E 028°39'0 0.0
2017-Dec-14 07:59N 44°06' E 028°39'0 0.0
2017-Dec-14 07:29N 44°06' E 028°39'0 0.0
2017-Dec-14 06:59N 44°06' E 028°39'0 0.0
2017-Dec-14 06:29N 44°06' E 028°39'0 0.0
2017-Dec-14 05:59N 44°06' E 028°39'0 0.0
2017-Dec-14 05:29N 44°06' E 028°39'0 0.0
2017-Dec-14 04:59N 44°06' E 028°39'0 0.0
2017-Dec-14 04:26N 44°06' E 028°39'0 0.0
2017-Dec-14 03:59N 44°06' E 028°39'0 0.0
2017-Dec-14 03:29N 44°06' E 028°39'0 0.0
2017-Dec-14 02:59N 44°06' E 028°39'0 0.0
2017-Dec-14 02:29N 44°06' E 028°39'0 0.0
2017-Dec-14 01:59N 44°06' E 028°39'0 0.0
2017-Dec-14 01:29N 44°06' E 028°39'0 0.0
2017-Dec-14 00:59N 44°06' E 028°39'0 0.0
2017-Dec-14 00:29N 44°06' E 028°39'0 0.0
2017-Dec-13 23:59N 44°06' E 028°39'0 0.0
2017-Dec-13 23:29N 44°06' E 028°39'0 0.0
2017-Dec-13 22:59N 44°06' E 028°39'0 0.0
2017-Dec-13 22:29N 44°06' E 028°39'0 0.0
2017-Dec-13 21:59N 44°06' E 028°39'0 0.0
2017-Dec-13 21:29N 44°06' E 028°39'0 0.0
2017-Dec-13 20:59N 44°06' E 028°39'0 0.0
2017-Dec-13 20:29N 44°06' E 028°39'0 0.0
2017-Dec-13 19:59N 44°06' E 028°39'0 0.0
2017-Dec-13 19:29N 44°06' E 028°39'0 0.0
2017-Dec-13 18:59N 44°06' E 028°39'0 0.0
2017-Dec-13 18:29N 44°06' E 028°39'0 0.0
2017-Dec-13 17:59N 44°06' E 028°39'0 0.0
2017-Dec-13 17:29N 44°06' E 028°39'0 0.0
2017-Dec-13 16:59N 44°06' E 028°39'0 0.0
2017-Dec-13 16:29N 44°06' E 028°39'0 0.0
2017-Dec-13 15:59N 44°06' E 028°39'0 0.0
2017-Dec-13 15:29N 44°06' E 028°39'0 0.0
2017-Dec-13 14:59N 44°06' E 028°39'0 0.0
2017-Dec-13 14:29N 44°06' E 028°39'0 0.0
2017-Dec-13 13:59N 44°06' E 028°39'0 0.0
2017-Dec-13 13:29N 44°06' E 028°39'0 0.0
2017-Dec-13 12:59N 44°06' E 028°39'0 0.0
2017-Dec-13 12:29N 44°06' E 028°39'0 0.0
2017-Dec-13 11:59N 44°06' E 028°39'0 0.0
2017-Dec-13 11:29N 44°06' E 028°39'0 0.0
2017-Dec-13 10:59N 44°06' E 028°39'0 0.0
2017-Dec-13 10:29N 44°06' E 028°39'0 0.0
2017-Dec-13 09:59N 44°06' E 028°39'0 0.0
2017-Dec-13 09:29N 44°06' E 028°39'0 0.0
2017-Dec-13 08:59N 44°06' E 028°39'0 0.0
2017-Dec-13 08:29N 44°06' E 028°39'0 0.0
2017-Dec-13 07:59N 44°06' E 028°39'0 0.0
2017-Dec-13 07:29N 44°06' E 028°39'0 0.0
2017-Dec-13 06:59N 44°06' E 028°39'0 0.0
2017-Dec-13 06:29N 44°06' E 028°39'0 0.0
2017-Dec-13 05:59N 44°06' E 028°39'0 0.0
2017-Dec-13 05:29N 44°06' E 028°39'0 0.0
2017-Dec-13 04:56N 44°06' E 028°39'0 0.0
2017-Dec-13 04:29N 44°06' E 028°39'0 0.0
2017-Dec-13 03:59N 44°06' E 028°39'0 0.0
2017-Dec-13 03:29N 44°06' E 028°39'0 0.0
2017-Dec-13 02:59N 44°06' E 028°39'0 0.0
2017-Dec-13 02:29N 44°06' E 028°39'0 0.0
2017-Dec-13 01:59N 44°06' E 028°39'0 0.0
2017-Dec-13 01:29N 44°06' E 028°39'0 0.0
2017-Dec-13 00:59N 44°06' E 028°39'0 0.0
2017-Dec-13 00:29N 44°06' E 028°39'0 0.0
2017-Dec-12 23:59N 44°06' E 028°39'0 0.0
2017-Dec-12 23:29N 44°06' E 028°39'0 0.0
2017-Dec-12 22:59N 44°06' E 028°39'0 0.0
2017-Dec-12 22:29N 44°06' E 028°39'0 0.0
2017-Dec-12 21:59N 44°06' E 028°39'0 0.0
2017-Dec-12 21:29N 44°06' E 028°39'0 0.0
2017-Dec-12 20:59N 44°06' E 028°39'0 0.0
2017-Dec-12 20:26N 44°06' E 028°39'0 0.0
2017-Dec-12 19:59N 44°06' E 028°39'0 0.0
2017-Dec-12 19:29N 44°06' E 028°39'0 0.0
2017-Dec-12 18:59N 44°06' E 028°39'0 0.0
2017-Dec-12 18:29N 44°06' E 028°39'0 0.0
2017-Dec-12 17:59N 44°06' E 028°39'0 0.0
2017-Dec-12 17:29N 44°06' E 028°39'0 0.0
2017-Dec-12 16:59N 44°06' E 028°39'0 0.0
2017-Dec-12 16:29N 44°06' E 028°39'0 0.0
2017-Dec-12 15:59N 44°06' E 028°39'0 0.0
2017-Dec-12 15:29N 44°06' E 028°39'0 0.0
2017-Dec-12 14:59N 44°06' E 028°39'0 0.0
2017-Dec-12 14:29N 44°06' E 028°39'0 0.0
2017-Dec-12 13:59N 44°06' E 028°39'0 0.0
2017-Dec-12 13:26N 44°06' E 028°39'0 0.0
2017-Dec-12 12:59N 44°06' E 028°39'0 0.0
2017-Dec-12 12:29N 44°06' E 028°39'0 0.0
2017-Dec-12 11:59N 44°06' E 028°39'0 0.0
2017-Dec-12 11:29N 44°06' E 028°39'0 0.0
2017-Dec-12 10:59N 44°06' E 028°39'0 0.0
2017-Dec-12 10:29N 44°06' E 028°39'0 0.0
2017-Dec-12 09:59N 44°06' E 028°39'0 0.0
2017-Dec-12 09:29N 44°06' E 028°39'0 0.0
2017-Dec-12 08:59N 44°06' E 028°39'0 0.0
2017-Dec-12 08:29N 44°06' E 028°39'0 0.0
2017-Dec-12 07:59N 44°06' E 028°39'0 0.0
2017-Dec-12 07:29N 44°06' E 028°39'0 0.0
2017-Dec-12 06:59N 44°06' E 028°39'0 0.0
2017-Dec-12 06:29N 44°06' E 028°39'0 0.0
2017-Dec-12 05:59N 44°06' E 028°39'0 0.0
2017-Dec-12 05:30N 44°06' E 028°39'0 0.0
2017-Dec-12 05:00N 44°06' E 028°39'0 0.0
2017-Dec-12 04:30N 44°06' E 028°39'0 0.0
2017-Dec-12 04:00N 44°06' E 028°39'0 0.0
2017-Dec-12 03:30N 44°06' E 028°39'0 0.0
2017-Dec-12 03:00N 44°06' E 028°39'0 0.0
2017-Dec-12 02:30N 44°06' E 028°39'0 0.0
2017-Dec-12 02:00N 44°06' E 028°39'0 0.0
2017-Dec-12 01:30N 44°06' E 028°39'0 0.0
2017-Dec-12 01:00N 44°06' E 028°39'0 0.0
2017-Dec-12 00:30N 44°06' E 028°39'0 0.0
2017-Dec-12 00:00N 44°06' E 028°39'0 0.0
2017-Dec-11 23:30N 44°06' E 028°39'0 0.0
2017-Dec-11 23:00N 44°06' E 028°39'0 0.0
2017-Dec-11 22:30N 44°06' E 028°39'0 0.0
2017-Dec-11 22:00N 44°06' E 028°39'0 0.0
2017-Dec-11 21:30N 44°06' E 028°39'0 0.0
2017-Dec-11 21:00N 44°06' E 028°39'0 0.0
2017-Dec-11 20:30N 44°06' E 028°39'0 0.0
2017-Dec-11 20:00N 44°06' E 028°39'0 0.0
2017-Dec-11 19:30N 44°06' E 028°39'0 0.0
2017-Dec-11 19:00N 44°06' E 028°39'0 0.0
2017-Dec-11 18:30N 44°06' E 028°39'0 0.0
2017-Dec-11 18:00N 44°06' E 028°39'0 0.0
2017-Dec-11 17:30N 44°06' E 028°39'0 0.0
2017-Dec-11 17:00N 44°06' E 028°39'0 0.0
2017-Dec-11 16:30N 44°06' E 028°39'0 0.0
2017-Dec-11 16:00N 44°06' E 028°39'0 0.0
2017-Dec-11 15:30N 44°06' E 028°39'0 0.0
2017-Dec-11 15:00N 44°06' E 028°39'0 0.0
2017-Dec-11 14:30N 44°06' E 028°39'0 0.0
2017-Dec-11 14:00N 44°06' E 028°39'0 0.0
2017-Dec-11 13:30N 44°06' E 028°39'0 0.0
2017-Dec-11 13:00N 44°06' E 028°39'0 0.0
2017-Dec-11 12:30N 44°06' E 028°39'0 0.0
2017-Dec-11 12:00N 44°06' E 028°39'0 0.0
2017-Dec-11 11:30N 44°06' E 028°39'0 0.0
2017-Dec-11 11:00N 44°06' E 028°39'0 0.0
2017-Dec-11 10:30N 44°06' E 028°39'0 0.0
2017-Dec-11 10:00N 44°06' E 028°39'0 0.0
2017-Dec-11 09:30N 44°06' E 028°39'0 0.0
2017-Dec-11 09:00N 44°06' E 028°39'0 0.0
2017-Dec-11 08:30N 44°06' E 028°39'0 0.0
2017-Dec-11 08:00N 44°06' E 028°39'0 0.0
2017-Dec-11 07:30N 44°06' E 028°39'0 0.0
2017-Dec-11 07:00N 44°06' E 028°39'0 0.0
2017-Dec-11 06:30N 44°06' E 028°39'0 0.0
2017-Dec-11 06:00N 44°06' E 028°39'0 0.0
2017-Dec-11 05:30N 44°06' E 028°39'0 0.0
2017-Dec-11 05:00N 44°06' E 028°39'0 0.0
2017-Dec-11 04:30N 44°06' E 028°39'0 0.0
2017-Dec-11 04:00N 44°06' E 028°39'0 0.0
2017-Dec-11 03:30N 44°06' E 028°39'0 0.0
2017-Dec-11 03:00N 44°06' E 028°39'0 0.0
2017-Dec-11 02:30N 44°06' E 028°39'0 0.0
2017-Dec-11 02:00N 44°06' E 028°39'0 0.0
2017-Dec-11 01:30N 44°06' E 028°39'0 0.0
2017-Dec-11 01:00N 44°06' E 028°39'0 0.0
2017-Dec-11 00:30N 44°06' E 028°39'0 0.0
2017-Dec-11 00:00N 44°06' E 028°39'0 0.0
2017-Dec-10 23:30N 44°06' E 028°39'0 0.0
2017-Dec-10 23:00N 44°06' E 028°39'0 0.0
2017-Dec-10 22:30N 44°06' E 028°39'0 0.0
2017-Dec-10 22:00N 44°06' E 028°39'0 0.0
2017-Dec-10 21:27N 44°06' E 028°39'0 0.0
2017-Dec-10 21:00N 44°06' E 028°39'0 0.0
2017-Dec-10 20:30N 44°06' E 028°39'0 0.0
2017-Dec-10 20:00N 44°06' E 028°39'0 0.0
2017-Dec-10 19:30N 44°06' E 028°39'0 0.0
2017-Dec-10 19:00N 44°06' E 028°39'0 0.0
2017-Dec-10 18:30N 44°06' E 028°39'0 0.0
2017-Dec-10 18:00N 44°06' E 028°39'0 0.0
2017-Dec-10 17:30N 44°06' E 028°39'0 0.0
2017-Dec-10 17:00N 44°06' E 028°39'0 0.0
2017-Dec-10 16:30N 44°06' E 028°39'0 0.0
2017-Dec-10 16:00N 44°06' E 028°39'0 0.0
2017-Dec-10 15:30N 44°06' E 028°39'0 0.0
2017-Dec-10 15:00N 44°06' E 028°39'0 0.0
2017-Dec-10 14:30N 44°06' E 028°39'0 0.0
2017-Dec-10 14:00N 44°06' E 028°39'0 0.0
2017-Dec-10 13:27N 44°06' E 028°39'0 0.0
2017-Dec-10 13:00N 44°06' E 028°39'0 0.0
2017-Dec-10 12:30N 44°06' E 028°39'0 0.0
2017-Dec-10 12:00N 44°06' E 028°39'0 0.0
2017-Dec-10 11:27N 44°06' E 028°39'0 0.0
2017-Dec-10 11:00N 44°06' E 028°39'0 0.0
2017-Dec-10 10:30N 44°06' E 028°39'0 0.0
2017-Dec-10 10:00N 44°06' E 028°39'0 0.0
2017-Dec-10 09:30N 44°06' E 028°39'0 0.0
2017-Dec-10 09:00N 44°06' E 028°39'0 0.0
2017-Dec-10 08:30N 44°06' E 028°39'0 0.0
2017-Dec-10 08:01N 44°06' E 028°39'1 2.0
2017-Dec-10 07:31N 44°06' E 028°41'2 4.1
2017-Dec-10 07:01N 44°05' E 028°43'3 5.9
2017-Dec-10 06:31N 44°07' E 028°47'1 1.3
2017-Dec-10 06:01N 44°07' E 028°47'0 0.3
2017-Dec-10 05:31N 44°07' E 028°47'2 4.9
2017-Dec-10 05:01N 44°05' E 028°46'3 5.7
2017-Dec-10 04:31N 44°02' E 028°47'5 9.0
2017-Dec-10 04:00N 43°58' E 028°51'4 8.7
2017-Dec-10 03:31N 43°55' E 028°55'4 8.4
2017-Dec-10 03:01N 43°52' E 028°59'4 8.0
2017-Dec-10 02:30N 43°48' E 029°02'4 8.7
2017-Dec-10 02:01N 43°44' E 029°03'2 4.1
2017-Dec-10 01:30N 43°43' E 029°05'4 8.7
2017-Dec-10 01:01N 43°39' E 029°02'714.6
2017-Dec-10 00:30N 43°32' E 029°02'15113.7
2017-Dec-09 13:30N 41°01' E 028°60'4 8.1
2017-Dec-09 12:57N 40°57' E 028°59'5 9.4
2017-Dec-09 12:28N 40°53' E 028°55'5 9.6
2017-Dec-09 11:56N 40°50' E 028°50'1 1.5
2017-Dec-09 11:26N 40°49' E 028°50'3 4.4
2017-Dec-09 10:46N 40°48' E 028°46'1 2.1
2017-Dec-09 10:30N 40°48' E 028°45'  

Dump ship's entire track history